sensor_id;sensor_type;location;lat;lon;timestamp;temperature;humidity
37518;DHT22;23366;52.498;13.446;2022-10-26T00:00:27;11.30;99.90
37518;DHT22;23366;52.498;13.446;2022-10-26T00:02:53;11.30;99.90
37518;DHT22;23366;52.498;13.446;2022-10-26T00:05:20;11.30;99.90
37518;DHT22;23366;52.498;13.446;2022-10-26T00:07:46;11.30;99.90
37518;DHT22;23366;52.498;13.446;2022-10-26T00:10:13;11.20;99.90
37518;DHT22;23366;52.498;13.446;2022-10-26T00:12:39;11.20;99.90
37518;DHT22;23366;52.498;13.446;2022-10-26T00:15:06;11.20;99.90
37518;DHT22;23366;52.498;13.446;2022-10-26T00:17:36;11.20;99.90
37518;DHT22;23366;52.498;13.446;2022-10-26T00:20:04;11.20;99.90
37518;DHT22;23366;52.498;13.446;2022-10-26T00:22:31;11.20;99.90
37518;DHT22;23366;52.498;13.446;2022-10-26T00:24:58;11.20;99.90
37518;DHT22;23366;52.498;13.446;2022-10-26T00:27:26;11.20;99.90
37518;DHT22;23366;52.498;13.446;2022-10-26T00:29:56;11.20;99.90
37518;DHT22;23366;52.498;13.446;2022-10-26T00:32:22;11.20;99.90
37518;DHT22;23366;52.498;13.446;2022-10-26T00:34:55;11.20;99.90
37518;DHT22;23366;52.498;13.446;2022-10-26T00:37:21;11.20;99.90
37518;DHT22;23366;52.498;13.446;2022-10-26T00:39:47;11.20;99.90
37518;DHT22;23366;52.498;13.446;2022-10-26T00:42:17;11.20;99.90
37518;DHT22;23366;52.498;13.446;2022-10-26T00:47:18;11.20;99.90
37518;DHT22;23366;52.498;13.446;2022-10-26T00:49:46;11.20;99.90
37518;DHT22;23366;52.498;13.446;2022-10-26T00:52:14;11.20;99.90
37518;DHT22;23366;52.498;13.446;2022-10-26T00:54:41;11.10;99.90
37518;DHT22;23366;52.498;13.446;2022-10-26T00:57:07;11.10;99.90
37518;DHT22;23366;52.498;13.446;2022-10-26T00:59:33;11.10;99.90
37518;DHT22;23366;52.498;13.446;2022-10-26T01:01:58;11.10;99.90
37518;DHT22;23366;52.498;13.446;2022-10-26T01:04:24;11.00;99.90
37518;DHT22;23366;52.498;13.446;2022-10-26T01:06:51;11.10;99.90
37518;DHT22;23366;52.498;13.446;2022-10-26T01:09:18;11.10;99.90
37518;DHT22;23366;52.498;13.446;2022-10-26T01:11:44;11.00;99.90
37518;DHT22;23366;52.498;13.446;2022-10-26T01:14:11;11.10;99.90
37518;DHT22;23366;52.498;13.446;2022-10-26T01:22:33;11.10;99.90
37518;DHT22;23366;52.498;13.446;2022-10-26T01:27:52;11.00;99.90
37518;DHT22;23366;52.498;13.446;2022-10-26T01:30:19;11.00;99.90
37518;DHT22;23366;52.498;13.446;2022-10-26T01:33:09;11.00;99.90
37518;DHT22;23366;52.498;13.446;2022-10-26T01:41:11;10.90;99.90
37518;DHT22;23366;52.498;13.446;2022-10-26T01:43:41;11.00;99.90
37518;DHT22;23366;52.498;13.446;2022-10-26T01:46:09;10.90;99.90
37518;DHT22;23366;52.498;13.446;2022-10-26T01:48:36;10.80;99.90
37518;DHT22;23366;52.498;13.446;2022-10-26T01:51:03;10.80;99.90
37518;DHT22;23366;52.498;13.446;2022-10-26T01:53:30;10.80;99.90
37518;DHT22;23366;52.498;13.446;2022-10-26T01:55:56;10.80;99.90
37518;DHT22;23366;52.498;13.446;2022-10-26T01:58:30;10.80;99.90
37518;DHT22;23366;52.498;13.446;2022-10-26T02:06:53;10.80;99.90
37518;DHT22;23366;52.498;13.446;2022-10-26T02:12:20;10.80;99.90
37518;DHT22;23366;52.498;13.446;2022-10-26T02:15:09;10.80;99.90
37518;DHT22;23366;52.498;13.446;2022-10-26T02:17:56;10.70;99.90
37518;DHT22;23366;52.498;13.446;2022-10-26T02:20:27;10.70;99.90
37518;DHT22;23366;52.498;13.446;2022-10-26T02:22:54;10.70;99.90
37518;DHT22;23366;52.498;13.446;2022-10-26T02:25:27;10.70;99.90
37518;DHT22;23366;52.498;13.446;2022-10-26T02:28:00;10.70;99.90
37518;DHT22;23366;52.498;13.446;2022-10-26T02:30:26;10.70;99.90
37518;DHT22;23366;52.498;13.446;2022-10-26T02:32:54;10.70;99.90
37518;DHT22;23366;52.498;13.446;2022-10-26T02:35:30;10.70;99.90
37518;DHT22;23366;52.498;13.446;2022-10-26T02:37:59;10.60;99.90
37518;DHT22;23366;52.498;13.446;2022-10-26T02:40:27;10.60;99.90
37518;DHT22;23366;52.498;13.446;2022-10-26T02:42:55;10.60;99.90
37518;DHT22;23366;52.498;13.446;2022-10-26T02:45:25;10.60;99.90
37518;DHT22;23366;52.498;13.446;2022-10-26T02:47:52;10.60;99.90
37518;DHT22;23366;52.498;13.446;2022-10-26T02:50:23;10.50;99.90
37518;DHT22;23366;52.498;13.446;2022-10-26T02:53:00;10.50;99.90
37518;DHT22;23366;52.498;13.446;2022-10-26T02:55:35;10.50;99.90
37518;DHT22;23366;52.498;13.446;2022-10-26T02:58:10;10.50;99.90
37518;DHT22;23366;52.498;13.446;2022-10-26T03:00:37;10.50;99.90
37518;DHT22;23366;52.498;13.446;2022-10-26T03:03:03;10.50;99.90
37518;DHT22;23366;52.498;13.446;2022-10-26T03:05:31;10.40;99.90
37518;DHT22;23366;52.498;13.446;2022-10-26T03:08:01;10.40;99.90
37518;DHT22;23366;52.498;13.446;2022-10-26T03:10:26;10.40;99.90
37518;DHT22;23366;52.498;13.446;2022-10-26T03:12:52;10.40;99.90
37518;DHT22;23366;52.498;13.446;2022-10-26T03:15:18;10.40;99.90
37518;DHT22;23366;52.498;13.446;2022-10-26T03:17:43;10.40;99.90
37518;DHT22;23366;52.498;13.446;2022-10-26T03:20:10;10.40;99.90
37518;DHT22;23366;52.498;13.446;2022-10-26T03:22:35;10.40;99.90
37518;DHT22;23366;52.498;13.446;2022-10-26T03:25:01;10.40;99.90
37518;DHT22;23366;52.498;13.446;2022-10-26T03:27:26;10.40;99.90
37518;DHT22;23366;52.498;13.446;2022-10-26T03:29:52;10.40;99.90
37518;DHT22;23366;52.498;13.446;2022-10-26T03:32:18;10.40;99.90
37518;DHT22;23366;52.498;13.446;2022-10-26T03:34:44;10.40;99.90
37518;DHT22;23366;52.498;13.446;2022-10-26T03:37:09;10.40;99.90
37518;DHT22;23366;52.498;13.446;2022-10-26T03:39:35;10.30;99.90
37518;DHT22;23366;52.498;13.446;2022-10-26T03:42:00;10.30;99.90
37518;DHT22;23366;52.498;13.446;2022-10-26T03:44:26;10.30;99.90
37518;DHT22;23366;52.498;13.446;2022-10-26T03:46:51;10.30;99.90
37518;DHT22;23366;52.498;13.446;2022-10-26T03:49:17;10.30;99.90
37518;DHT22;23366;52.498;13.446;2022-10-26T03:51:53;10.30;99.90
37518;DHT22;23366;52.498;13.446;2022-10-26T03:54:19;10.30;99.90
37518;DHT22;23366;52.498;13.446;2022-10-26T03:57:03;10.20;99.90
37518;DHT22;23366;52.498;13.446;2022-10-26T03:59:48;10.20;99.90
37518;DHT22;23366;52.498;13.446;2022-10-26T04:02:14;10.20;99.90
37518;DHT22;23366;52.498;13.446;2022-10-26T04:04:42;10.20;99.90
37518;DHT22;23366;52.498;13.446;2022-10-26T04:07:07;10.20;99.90
37518;DHT22;23366;52.498;13.446;2022-10-26T04:09:33;10.20;99.90
37518;DHT22;23366;52.498;13.446;2022-10-26T04:11:58;10.20;99.90
37518;DHT22;23366;52.498;13.446;2022-10-26T04:14:24;10.10;99.90
37518;DHT22;23366;52.498;13.446;2022-10-26T04:16:49;10.10;99.90
37518;DHT22;23366;52.498;13.446;2022-10-26T04:19:15;10.10;99.90
37518;DHT22;23366;52.498;13.446;2022-10-26T04:21:40;10.10;99.90
37518;DHT22;23366;52.498;13.446;2022-10-26T04:24:06;10.10;99.90
37518;DHT22;23366;52.498;13.446;2022-10-26T04:26:31;10.10;99.90
37518;DHT22;23366;52.498;13.446;2022-10-26T04:28:57;10.00;99.90
37518;DHT22;23366;52.498;13.446;2022-10-26T04:31:22;10.00;99.90
37518;DHT22;23366;52.498;13.446;2022-10-26T04:33:48;9.90;99.90
37518;DHT22;23366;52.498;13.446;2022-10-26T04:36:13;10.00;99.90
37518;DHT22;23366;52.498;13.446;2022-10-26T04:38:39;9.90;99.90
37518;DHT22;23366;52.498;13.446;2022-10-26T04:41:04;9.90;99.90
37518;DHT22;23366;52.498;13.446;2022-10-26T04:43:30;9.90;99.90
37518;DHT22;23366;52.498;13.446;2022-10-26T04:45:56;9.90;99.90
37518;DHT22;23366;52.498;13.446;2022-10-26T04:48:22;9.90;99.90
37518;DHT22;23366;52.498;13.446;2022-10-26T04:50:47;9.90;99.90
37518;DHT22;23366;52.498;13.446;2022-10-26T04:53:13;9.90;99.90
37518;DHT22;23366;52.498;13.446;2022-10-26T04:55:39;9.80;99.90
37518;DHT22;23366;52.498;13.446;2022-10-26T04:58:05;9.80;99.90
37518;DHT22;23366;52.498;13.446;2022-10-26T05:00:31;9.80;99.90
37518;DHT22;23366;52.498;13.446;2022-10-26T05:03:05;9.80;99.90
37518;DHT22;23366;52.498;13.446;2022-10-26T05:05:33;9.80;99.90
37518;DHT22;23366;52.498;13.446;2022-10-26T05:07:59;9.70;99.90
37518;DHT22;23366;52.498;13.446;2022-10-26T05:10:25;9.70;99.90
37518;DHT22;23366;52.498;13.446;2022-10-26T05:12:51;9.70;99.90
37518;DHT22;23366;52.498;13.446;2022-10-26T05:15:17;9.70;99.90
37518;DHT22;23366;52.498;13.446;2022-10-26T05:17:43;9.60;99.90
37518;DHT22;23366;52.498;13.446;2022-10-26T05:20:09;9.60;99.90
37518;DHT22;23366;52.498;13.446;2022-10-26T05:22:38;9.60;99.90
37518;DHT22;23366;52.498;13.446;2022-10-26T05:25:04;9.60;99.90
37518;DHT22;23366;52.498;13.446;2022-10-26T05:27:30;9.50;99.90
37518;DHT22;23366;52.498;13.446;2022-10-26T05:29:57;9.50;99.90
37518;DHT22;23366;52.498;13.446;2022-10-26T05:32:22;9.50;99.90
37518;DHT22;23366;52.498;13.446;2022-10-26T05:34:48;9.50;99.90
37518;DHT22;23366;52.498;13.446;2022-10-26T05:37:13;9.50;99.90
37518;DHT22;23366;52.498;13.446;2022-10-26T05:39:39;9.40;99.90
37518;DHT22;23366;52.498;13.446;2022-10-26T05:42:05;9.40;99.90
37518;DHT22;23366;52.498;13.446;2022-10-26T05:44:30;9.40;99.90
37518;DHT22;23366;52.498;13.446;2022-10-26T05:46:56;9.50;99.90
37518;DHT22;23366;52.498;13.446;2022-10-26T05:49:21;9.40;99.90
37518;DHT22;23366;52.498;13.446;2022-10-26T05:51:47;9.40;99.90
37518;DHT22;23366;52.498;13.446;2022-10-26T05:54:12;9.40;99.90
37518;DHT22;23366;52.498;13.446;2022-10-26T05:56:39;9.40;99.90
37518;DHT22;23366;52.498;13.446;2022-10-26T05:59:13;9.40;99.90
37518;DHT22;23366;52.498;13.446;2022-10-26T06:04:42;9.30;99.90
37518;DHT22;23366;52.498;13.446;2022-10-26T06:07:12;9.30;99.90
37518;DHT22;23366;52.498;13.446;2022-10-26T06:09:38;9.30;99.90
37518;DHT22;23366;52.498;13.446;2022-10-26T06:12:04;9.30;99.90
37518;DHT22;23366;52.498;13.446;2022-10-26T06:14:32;9.30;99.90
37518;DHT22;23366;52.498;13.446;2022-10-26T06:17:25;9.30;99.90
37518;DHT22;23366;52.498;13.446;2022-10-26T06:22:38;9.40;99.90
37518;DHT22;23366;52.498;13.446;2022-10-26T06:25:13;9.50;99.90
37518;DHT22;23366;52.498;13.446;2022-10-26T06:30:19;9.60;99.90
37518;DHT22;23366;52.498;13.446;2022-10-26T06:32:48;9.70;99.90
37518;DHT22;23366;52.498;13.446;2022-10-26T06:38:09;9.90;99.90
37518;DHT22;23366;52.498;13.446;2022-10-26T06:40:38;10.00;99.90
37518;DHT22;23366;52.498;13.446;2022-10-26T06:43:22;10.00;99.90
37518;DHT22;23366;52.498;13.446;2022-10-26T06:45:59;10.20;99.90
37518;DHT22;23366;52.498;13.446;2022-10-26T06:48:36;10.40;99.90
37518;DHT22;23366;52.498;13.446;2022-10-26T06:51:10;10.70;99.90
37518;DHT22;23366;52.498;13.446;2022-10-26T06:53:54;11.10;99.90
37518;DHT22;23366;52.498;13.446;2022-10-26T06:56:21;11.50;99.90
37518;DHT22;23366;52.498;13.446;2022-10-26T06:58:51;12.00;99.90
37518;DHT22;23366;52.498;13.446;2022-10-26T07:01:17;12.50;99.90
37518;DHT22;23366;52.498;13.446;2022-10-26T07:03:43;12.90;99.90
37518;DHT22;23366;52.498;13.446;2022-10-26T07:06:08;13.30;99.90
37518;DHT22;23366;52.498;13.446;2022-10-26T07:08:34;13.70;99.90
37518;DHT22;23366;52.498;13.446;2022-10-26T07:11:00;14.00;99.90
37518;DHT22;23366;52.498;13.446;2022-10-26T07:13:25;14.40;99.90
37518;DHT22;23366;52.498;13.446;2022-10-26T07:15:51;14.80;99.90
37518;DHT22;23366;52.498;13.446;2022-10-26T07:18:16;15.10;99.90
37518;DHT22;23366;52.498;13.446;2022-10-26T07:20:42;15.60;99.90
37518;DHT22;23366;52.498;13.446;2022-10-26T07:23:09;16.20;99.90
37518;DHT22;23366;52.498;13.446;2022-10-26T07:25:37;17.00;99.90
37518;DHT22;23366;52.498;13.446;2022-10-26T07:28:09;17.80;99.90
37518;DHT22;23366;52.498;13.446;2022-10-26T07:30:36;18.50;99.90
37518;DHT22;23366;52.498;13.446;2022-10-26T07:33:04;18.90;99.90
37518;DHT22;23366;52.498;13.446;2022-10-26T07:35:31;19.70;99.90
37518;DHT22;23366;52.498;13.446;2022-10-26T07:37:57;20.40;99.80
37518;DHT22;23366;52.498;13.446;2022-10-26T07:40:24;21.20;98.30
37518;DHT22;23366;52.498;13.446;2022-10-26T07:42:50;21.90;96.80
37518;DHT22;23366;52.498;13.446;2022-10-26T07:45:16;22.60;95.10
37518;DHT22;23366;52.498;13.446;2022-10-26T07:47:41;23.10;93.50
37518;DHT22;23366;52.498;13.446;2022-10-26T07:50:07;23.40;92.00
37518;DHT22;23366;52.498;13.446;2022-10-26T07:52:33;23.70;91.20
37518;DHT22;23366;52.498;13.446;2022-10-26T07:55:00;24.00;90.40
37518;DHT22;23366;52.498;13.446;2022-10-26T07:57:25;24.00;89.50
37518;DHT22;23366;52.498;13.446;2022-10-26T07:59:51;23.90;89.00
37518;DHT22;23366;52.498;13.446;2022-10-26T08:02:16;23.10;89.40
37518;DHT22;23366;52.498;13.446;2022-10-26T08:04:43;22.20;90.70
37518;DHT22;23366;52.498;13.446;2022-10-26T08:07:08;21.20;92.30
37518;DHT22;23366;52.498;13.446;2022-10-26T08:09:34;20.20;93.60
37518;DHT22;23366;52.498;13.446;2022-10-26T08:11:59;19.20;95.40
37518;DHT22;23366;52.498;13.446;2022-10-26T08:14:25;18.40;97.10
37518;DHT22;23366;52.498;13.446;2022-10-26T08:16:50;17.70;98.50
37518;DHT22;23366;52.498;13.446;2022-10-26T08:19:17;17.10;99.90
37518;DHT22;23366;52.498;13.446;2022-10-26T08:21:42;16.60;99.90
37518;DHT22;23366;52.498;13.446;2022-10-26T08:24:08;16.10;99.90
37518;DHT22;23366;52.498;13.446;2022-10-26T08:26:34;15.80;99.90
37518;DHT22;23366;52.498;13.446;2022-10-26T08:28:59;15.50;99.90
37518;DHT22;23366;52.498;13.446;2022-10-26T08:31:25;15.30;99.90
37518;DHT22;23366;52.498;13.446;2022-10-26T08:33:50;15.30;99.90
37518;DHT22;23366;52.498;13.446;2022-10-26T08:36:22;15.10;99.90
37518;DHT22;23366;52.498;13.446;2022-10-26T08:38:47;14.90;99.90
37518;DHT22;23366;52.498;13.446;2022-10-26T08:41:13;14.80;99.90
37518;DHT22;23366;52.498;13.446;2022-10-26T08:46:40;14.70;99.90
37518;DHT22;23366;52.498;13.446;2022-10-26T08:49:29;14.70;99.90
37518;DHT22;23366;52.498;13.446;2022-10-26T08:51:59;14.60;99.90
37518;DHT22;23366;52.498;13.446;2022-10-26T08:56:56;14.50;99.90
37518;DHT22;23366;52.498;13.446;2022-10-26T08:59:37;14.40;99.90
37518;DHT22;23366;52.498;13.446;2022-10-26T09:02:12;14.40;99.90
37518;DHT22;23366;52.498;13.446;2022-10-26T09:04:38;14.40;99.90
37518;DHT22;23366;52.498;13.446;2022-10-26T09:10:48;14.20;99.90
37518;DHT22;23366;52.498;13.446;2022-10-26T09:13:21;14.20;99.90
37518;DHT22;23366;52.498;13.446;2022-10-26T09:16:01;14.20;99.90
37518;DHT22;23366;52.498;13.446;2022-10-26T09:18:50;14.20;99.90
37518;DHT22;23366;52.498;13.446;2022-10-26T09:21:35;14.30;99.90
37518;DHT22;23366;52.498;13.446;2022-10-26T09:24:10;14.30;99.90
37518;DHT22;23366;52.498;13.446;2022-10-26T09:29:12;14.40;99.90
37518;DHT22;23366;52.498;13.446;2022-10-26T09:31:42;14.40;99.90
37518;DHT22;23366;52.498;13.446;2022-10-26T09:34:17;14.40;99.90
37518;DHT22;23366;52.498;13.446;2022-10-26T09:36:43;14.40;99.90
37518;DHT22;23366;52.498;13.446;2022-10-26T09:39:17;14.30;99.90
37518;DHT22;23366;52.498;13.446;2022-10-26T09:41:55;14.30;99.90
37518;DHT22;23366;52.498;13.446;2022-10-26T09:44:53;14.30;99.90
37518;DHT22;23366;52.498;13.446;2022-10-26T09:47:32;14.40;99.90
37518;DHT22;23366;52.498;13.446;2022-10-26T09:50:28;14.50;99.90
37518;DHT22;23366;52.498;13.446;2022-10-26T09:52:55;14.50;99.90
37518;DHT22;23366;52.498;13.446;2022-10-26T09:55:20;14.50;99.90
37518;DHT22;23366;52.498;13.446;2022-10-26T09:57:53;14.60;99.90
37518;DHT22;23366;52.498;13.446;2022-10-26T10:00:21;14.70;99.90
37518;DHT22;23366;52.498;13.446;2022-10-26T10:02:53;14.80;99.90
37518;DHT22;23366;52.498;13.446;2022-10-26T10:05:25;14.80;99.90
37518;DHT22;23366;52.498;13.446;2022-10-26T10:07:51;14.90;99.90
37518;DHT22;23366;52.498;13.446;2022-10-26T10:10:24;15.00;99.90
37518;DHT22;23366;52.498;13.446;2022-10-26T10:12:50;15.10;99.90
37518;DHT22;23366;52.498;13.446;2022-10-26T10:15:24;15.00;99.90
37518;DHT22;23366;52.498;13.446;2022-10-26T10:17:51;15.10;99.90
37518;DHT22;23366;52.498;13.446;2022-10-26T10:20:30;15.10;99.90
37518;DHT22;23366;52.498;13.446;2022-10-26T10:22:58;15.20;99.90
37518;DHT22;23366;52.498;13.446;2022-10-26T10:25:37;15.20;99.90
37518;DHT22;23366;52.498;13.446;2022-10-26T10:28:20;15.20;99.90
37518;DHT22;23366;52.498;13.446;2022-10-26T10:30:58;15.30;99.90
37518;DHT22;23366;52.498;13.446;2022-10-26T10:33:37;15.30;99.90
37518;DHT22;23366;52.498;13.446;2022-10-26T10:36:09;15.40;99.90
37518;DHT22;23366;52.498;13.446;2022-10-26T10:38:37;15.40;99.90
37518;DHT22;23366;52.498;13.446;2022-10-26T10:41:04;15.50;99.90
37518;DHT22;23366;52.498;13.446;2022-10-26T10:43:30;15.60;99.90
37518;DHT22;23366;52.498;13.446;2022-10-26T10:45:57;15.70;99.90
37518;DHT22;23366;52.498;13.446;2022-10-26T10:48:28;15.70;99.90
37518;DHT22;23366;52.498;13.446;2022-10-26T10:51:07;15.80;99.90
37518;DHT22;23366;52.498;13.446;2022-10-26T10:53:44;15.90;99.90
37518;DHT22;23366;52.498;13.446;2022-10-26T10:56:27;16.00;99.90
37518;DHT22;23366;52.498;13.446;2022-10-26T11:01:48;15.90;99.90
37518;DHT22;23366;52.498;13.446;2022-10-26T11:04:47;16.00;99.90
37518;DHT22;23366;52.498;13.446;2022-10-26T11:07:15;16.00;99.90
37518;DHT22;23366;52.498;13.446;2022-10-26T11:09:44;16.00;99.90
37518;DHT22;23366;52.498;13.446;2022-10-26T11:12:33;16.00;99.90
37518;DHT22;23366;52.498;13.446;2022-10-26T11:15:10;16.10;99.90
37518;DHT22;23366;52.498;13.446;2022-10-26T11:17:54;16.10;99.90
37518;DHT22;23366;52.498;13.446;2022-10-26T11:20:23;16.10;99.90
37518;DHT22;23366;52.498;13.446;2022-10-26T11:25:41;16.10;99.90
37518;DHT22;23366;52.498;13.446;2022-10-26T11:31:03;16.20;99.90
37518;DHT22;23366;52.498;13.446;2022-10-26T11:33:35;16.20;99.90
37518;DHT22;23366;52.498;13.446;2022-10-26T11:36:08;16.20;99.90
37518;DHT22;23366;52.498;13.446;2022-10-26T11:38:51;16.30;99.90
37518;DHT22;23366;52.498;13.446;2022-10-26T11:41:39;16.30;99.90
37518;DHT22;23366;52.498;13.446;2022-10-26T11:47:12;16.30;99.90
37518;DHT22;23366;52.498;13.446;2022-10-26T11:50:01;16.30;99.90
37518;DHT22;23366;52.498;13.446;2022-10-26T11:54:59;16.30;99.90
37518;DHT22;23366;52.498;13.446;2022-10-26T11:57:27;16.40;99.90
37518;DHT22;23366;52.498;13.446;2022-10-26T11:59:56;16.40;99.90
37518;DHT22;23366;52.498;13.446;2022-10-26T12:02:24;16.30;99.90
37518;DHT22;23366;52.498;13.446;2022-10-26T12:05:04;16.40;99.90
37518;DHT22;23366;52.498;13.446;2022-10-26T12:07:35;16.30;99.90
37518;DHT22;23366;52.498;13.446;2022-10-26T12:10:04;16.30;99.90
37518;DHT22;23366;52.498;13.446;2022-10-26T12:12:42;16.40;99.90
37518;DHT22;23366;52.498;13.446;2022-10-26T12:15:33;16.40;99.90
37518;DHT22;23366;52.498;13.446;2022-10-26T12:18:25;16.40;99.90
37518;DHT22;23366;52.498;13.446;2022-10-26T12:20:54;16.40;99.90
37518;DHT22;23366;52.498;13.446;2022-10-26T12:23:27;16.40;99.90
37518;DHT22;23366;52.498;13.446;2022-10-26T12:39:31;16.50;99.90
37518;DHT22;23366;52.498;13.446;2022-10-26T12:47:03;16.50;99.90
37518;DHT22;23366;52.498;13.446;2022-10-26T12:49:58;16.50;99.90
37518;DHT22;23366;52.498;13.446;2022-10-26T13:00:13;16.60;99.90
37518;DHT22;23366;52.498;13.446;2022-10-26T13:08:09;16.60;99.90
37518;DHT22;23366;52.498;13.446;2022-10-26T13:10:36;16.60;99.90
37518;DHT22;23366;52.498;13.446;2022-10-26T13:13:05;16.60;99.90
37518;DHT22;23366;52.498;13.446;2022-10-26T13:15:50;16.60;99.90
37518;DHT22;23366;52.498;13.446;2022-10-26T13:18:18;16.60;99.90
37518;DHT22;23366;52.498;13.446;2022-10-26T13:20:53;16.60;99.90
37518;DHT22;23366;52.498;13.446;2022-10-26T13:23:27;16.60;99.90
37518;DHT22;23366;52.498;13.446;2022-10-26T13:26:16;16.60;99.90
37518;DHT22;23366;52.498;13.446;2022-10-26T13:28:50;16.60;99.90
37518;DHT22;23366;52.498;13.446;2022-10-26T13:34:09;16.60;99.90
37518;DHT22;23366;52.498;13.446;2022-10-26T13:36:54;16.70;99.90
37518;DHT22;23366;52.498;13.446;2022-10-26T13:39:28;16.70;99.90
37518;DHT22;23366;52.498;13.446;2022-10-26T13:41:55;16.70;99.90
37518;DHT22;23366;52.498;13.446;2022-10-26T13:44:41;16.70;99.90
37518;DHT22;23366;52.498;13.446;2022-10-26T13:47:11;16.70;99.90
37518;DHT22;23366;52.498;13.446;2022-10-26T13:49:40;16.70;99.90
37518;DHT22;23366;52.498;13.446;2022-10-26T13:52:15;16.70;99.90
37518;DHT22;23366;52.498;13.446;2022-10-26T13:55:12;16.70;99.90
37518;DHT22;23366;52.498;13.446;2022-10-26T13:57:38;16.70;99.90
37518;DHT22;23366;52.498;13.446;2022-10-26T14:00:29;16.70;99.90
37518;DHT22;23366;52.498;13.446;2022-10-26T14:02:54;16.70;99.90
37518;DHT22;23366;52.498;13.446;2022-10-26T14:05:20;16.80;99.90
37518;DHT22;23366;52.498;13.446;2022-10-26T14:08:04;16.80;99.90
37518;DHT22;23366;52.498;13.446;2022-10-26T14:10:39;16.70;99.90
37518;DHT22;23366;52.498;13.446;2022-10-26T14:13:12;16.70;99.90
37518;DHT22;23366;52.498;13.446;2022-10-26T14:15:42;16.70;99.90
37518;DHT22;23366;52.498;13.446;2022-10-26T14:18:15;16.80;99.90
37518;DHT22;23366;52.498;13.446;2022-10-26T14:20:48;16.80;99.90
37518;DHT22;23366;52.498;13.446;2022-10-26T14:23:27;16.70;99.90
37518;DHT22;23366;52.498;13.446;2022-10-26T14:25:53;16.70;99.90
37518;DHT22;23366;52.498;13.446;2022-10-26T14:28:42;16.80;99.90
37518;DHT22;23366;52.498;13.446;2022-10-26T14:31:31;16.70;99.90
37518;DHT22;23366;52.498;13.446;2022-10-26T14:33:57;16.70;99.90
37518;DHT22;23366;52.498;13.446;2022-10-26T14:37:00;16.70;99.90
37518;DHT22;23366;52.498;13.446;2022-10-26T14:39:39;16.70;99.90
37518;DHT22;23366;52.498;13.446;2022-10-26T14:42:37;16.70;99.90
37518;DHT22;23366;52.498;13.446;2022-10-26T14:45:04;16.70;99.90
37518;DHT22;23366;52.498;13.446;2022-10-26T14:47:31;16.60;99.90
37518;DHT22;23366;52.498;13.446;2022-10-26T14:49:59;16.60;99.90
37518;DHT22;23366;52.498;13.446;2022-10-26T14:52:33;16.60;99.90
37518;DHT22;23366;52.498;13.446;2022-10-26T14:55:03;16.50;99.90
37518;DHT22;23366;52.498;13.446;2022-10-26T14:57:34;16.40;99.90
37518;DHT22;23366;52.498;13.446;2022-10-26T15:00:16;16.40;99.90
37518;DHT22;23366;52.498;13.446;2022-10-26T15:02:49;16.30;99.90
37518;DHT22;23366;52.498;13.446;2022-10-26T15:05:28;16.30;99.90
37518;DHT22;23366;52.498;13.446;2022-10-26T15:07:56;16.20;99.90
37518;DHT22;23366;52.498;13.446;2022-10-26T15:13:19;16.20;99.90
37518;DHT22;23366;52.498;13.446;2022-10-26T15:15:46;16.10;99.90
37518;DHT22;23366;52.498;13.446;2022-10-26T15:18:28;16.10;99.90
37518;DHT22;23366;52.498;13.446;2022-10-26T15:20:54;16.10;99.90
37518;DHT22;23366;52.498;13.446;2022-10-26T15:23:22;16.00;99.90
37518;DHT22;23366;52.498;13.446;2022-10-26T15:25:59;16.00;99.90
37518;DHT22;23366;52.498;13.446;2022-10-26T15:28:38;16.00;99.90
37518;DHT22;23366;52.498;13.446;2022-10-26T15:31:28;16.00;99.90
37518;DHT22;23366;52.498;13.446;2022-10-26T15:34:05;15.90;99.90
37518;DHT22;23366;52.498;13.446;2022-10-26T15:36:32;15.90;99.90
37518;DHT22;23366;52.498;13.446;2022-10-26T15:38:59;15.90;99.90
37518;DHT22;23366;52.498;13.446;2022-10-26T15:41:29;15.90;99.90
37518;DHT22;23366;52.498;13.446;2022-10-26T15:43:56;15.90;99.90
37518;DHT22;23366;52.498;13.446;2022-10-26T15:46:23;15.90;99.90
37518;DHT22;23366;52.498;13.446;2022-10-26T15:49:00;15.90;99.90
37518;DHT22;23366;52.498;13.446;2022-10-26T15:51:26;15.90;99.90
37518;DHT22;23366;52.498;13.446;2022-10-26T15:53:56;15.90;99.90
37518;DHT22;23366;52.498;13.446;2022-10-26T15:56:23;15.80;99.90
37518;DHT22;23366;52.498;13.446;2022-10-26T15:58:50;15.70;99.90
37518;DHT22;23366;52.498;13.446;2022-10-26T16:03:43;15.60;99.90
37518;DHT22;23366;52.498;13.446;2022-10-26T16:06:14;15.60;99.90
37518;DHT22;23366;52.498;13.446;2022-10-26T16:08:40;15.50;99.90
37518;DHT22;23366;52.498;13.446;2022-10-26T16:11:06;15.50;99.90
37518;DHT22;23366;52.498;13.446;2022-10-26T16:13:31;15.50;99.90
37518;DHT22;23366;52.498;13.446;2022-10-26T16:15:57;15.40;99.90
37518;DHT22;23366;52.498;13.446;2022-10-26T16:18:22;15.40;99.90
37518;DHT22;23366;52.498;13.446;2022-10-26T16:20:48;15.30;99.90
37518;DHT22;23366;52.498;13.446;2022-10-26T16:23:14;15.30;99.90
37518;DHT22;23366;52.498;13.446;2022-10-26T16:25:44;15.30;99.90
37518;DHT22;23366;52.498;13.446;2022-10-26T16:28:11;15.30;99.90
37518;DHT22;23366;52.498;13.446;2022-10-26T16:30:38;15.20;99.90
37518;DHT22;23366;52.498;13.446;2022-10-26T16:33:03;15.20;99.90
37518;DHT22;23366;52.498;13.446;2022-10-26T16:35:29;15.20;99.90
37518;DHT22;23366;52.498;13.446;2022-10-26T16:37:54;15.20;99.90
37518;DHT22;23366;52.498;13.446;2022-10-26T16:40:20;15.20;99.90
37518;DHT22;23366;52.498;13.446;2022-10-26T16:42:45;15.20;99.90
37518;DHT22;23366;52.498;13.446;2022-10-26T16:45:12;15.20;99.90
37518;DHT22;23366;52.498;13.446;2022-10-26T16:47:37;15.20;99.90
37518;DHT22;23366;52.498;13.446;2022-10-26T16:50:08;15.20;99.90
37518;DHT22;23366;52.498;13.446;2022-10-26T16:52:34;15.20;99.90
37518;DHT22;23366;52.498;13.446;2022-10-26T16:55:00;15.20;99.90
37518;DHT22;23366;52.498;13.446;2022-10-26T16:57:25;15.20;99.90
37518;DHT22;23366;52.498;13.446;2022-10-26T16:59:51;15.20;99.90
37518;DHT22;23366;52.498;13.446;2022-10-26T17:02:17;15.30;99.90
37518;DHT22;23366;52.498;13.446;2022-10-26T17:04:42;15.20;99.90
37518;DHT22;23366;52.498;13.446;2022-10-26T17:07:09;15.20;99.90
37518;DHT22;23366;52.498;13.446;2022-10-26T17:09:35;15.30;99.90
37518;DHT22;23366;52.498;13.446;2022-10-26T17:12:00;15.20;99.90
37518;DHT22;23366;52.498;13.446;2022-10-26T17:14:28;15.20;99.90
37518;DHT22;23366;52.498;13.446;2022-10-26T17:16:53;15.20;99.90
37518;DHT22;23366;52.498;13.446;2022-10-26T17:19:19;15.20;99.90